Zeynalabdin Tagiyev — 9HLD8 — position and weather

sailwx.info

Track history (hours):
 
Tides and Currents Weather Stations Pressure Air Temp Water Temp Dewpoint Dewpoint Depression Visibility Wind Speed Wind Dir Waves Ship Positions

Zeynalabdin Tagiyev

Last reported at 2014-Oct-19 01:21 UTC. Time now 2014-Oct-25 12:41 UTC.
Position N 38°55' W 009°49'.

Length 140 m; draft 4.4 m.

Type: Cargo ship. MMSI: 256107000.

Date/timePositionNaut miles runAvg speedWind from/ knotsBaromVisibWave heightAir tempDewpointWater temp
2014-Oct-19 01:21N 38°55' W 009°49'37 5.4
2014-Oct-18 18:31N 38°21' W 009°31'6 6.3
2014-Oct-18 17:31N 38°15' W 009°30'6 6.0
2014-Oct-18 16:33N 38°09' W 009°29'6 5.9
2014-Oct-18 15:33N 38°03' W 009°28'6 6.2
2014-Oct-18 14:33N 37°57' W 009°28'6 6.0
2014-Oct-18 13:33N 37°51' W 009°27'6 5.6
2014-Oct-18 12:33N 37°46' W 009°26'6 5.7
2014-Oct-18 11:33N 37°40' W 009°25'216 5.1
2014-Oct-16 17:19N 35°59' W 005°26'3 4.6
2014-Oct-16 16:33N 35°58' W 005°23'5 5.1
2014-Oct-16 15:34N 35°54' W 005°19'0 0.2
2014-Oct-16 14:32N 35°54' W 005°18'0 0.0
2014-Oct-16 13:32N 35°54' W 005°18'0 0.0
2014-Oct-16 12:31N 35°54' W 005°18'0 0.0
2014-Oct-16 11:30N 35°54' W 005°18'0 0.0
2014-Oct-16 10:26N 35°54' W 005°18'0 0.0
2014-Oct-16 09:28N 35°54' W 005°18'0 0.5
2014-Oct-16 08:33N 35°54' W 005°18'0 0.4
2014-Oct-16 07:33N 35°55' W 005°18'2 1.9
2014-Oct-16 06:34N 35°56' W 005°18'1 0.6
2014-Oct-16 05:33N 35°57' W 005°18'1 0.7
2014-Oct-16 04:33N 35°56' W 005°18'  
2014-Oct-11 01:17N 37°37' E 009°55'11 6.2
2014-Oct-10 23:31N 37°39' E 010°09'7 6.3
2014-Oct-10 22:23N 37°38' E 010°18'  
Track history (hours):
 
Tides and Currents Weather Stations Pressure Air Temp Water Temp Dewpoint Dewpoint Depression Visibility Wind Speed Wind Dir Waves Ship Positions

Zeynalabdin Tagiyev

Last reported at 2014-Oct-19 01:21 UTC. Time now 2014-Oct-25 12:41 UTC.
Position N 38°55' W 009°49'.

Length 140 m; draft 4.4 m.

Type: Cargo ship. MMSI: 256107000.

Date/timePositionNaut miles runAvg speedWind from/ knotsBaromVisibWave heightAir tempDewpointWater temp
2014-Oct-19 01:21N 38°55' W 009°49'37 5.4
2014-Oct-18 18:31N 38°21' W 009°31'6 6.3
2014-Oct-18 17:31N 38°15' W 009°30'6 6.0
2014-Oct-18 16:33N 38°09' W 009°29'6 5.9
2014-Oct-18 15:33N 38°03' W 009°28'6 6.2
2014-Oct-18 14:33N 37°57' W 009°28'6 6.0
2014-Oct-18 13:33N 37°51' W 009°27'6 5.6
2014-Oct-18 12:33N 37°46' W 009°26'6 5.7
2014-Oct-18 11:33N 37°40' W 009°25'216 5.1
2014-Oct-16 17:19N 35°59' W 005°26'3 4.6
2014-Oct-16 16:33N 35°58' W 005°23'5 5.1
2014-Oct-16 15:34N 35°54' W 005°19'0 0.2
2014-Oct-16 14:32N 35°54' W 005°18'0 0.0
2014-Oct-16 13:32N 35°54' W 005°18'0 0.0
2014-Oct-16 12:31N 35°54' W 005°18'0 0.0
2014-Oct-16 11:30N 35°54' W 005°18'0 0.0
2014-Oct-16 10:26N 35°54' W 005°18'0 0.0
2014-Oct-16 09:28N 35°54' W 005°18'0 0.5
2014-Oct-16 08:33N 35°54' W 005°18'0 0.4
2014-Oct-16 07:33N 35°55' W 005°18'2 1.9
2014-Oct-16 06:34N 35°56' W 005°18'1 0.6
2014-Oct-16 05:33N 35°57' W 005°18'1 0.7
2014-Oct-16 04:33N 35°56' W 005°18'  
2014-Oct-11 01:17N 37°37' E 009°55'11 6.2
2014-Oct-10 23:31N 37°39' E 010°09'7 6.3
2014-Oct-10 22:23N 37°38' E 010°18'  

Dump ship's entire track history